sensor_id;sensor_type;location;lat;lon;timestamp;P1;durP1;ratioP1;P2;durP2;ratioP2
65799;SDS011;52544;48.116;11.660;2022-12-18T00:01:14;49.92;;;15.50;;
65799;SDS011;52544;48.116;11.660;2022-12-18T00:03:44;50.35;;;16.65;;
65799;SDS011;52544;48.116;11.660;2022-12-18T00:06:10;53.60;;;18.45;;
65799;SDS011;52544;48.116;11.660;2022-12-18T00:08:36;47.83;;;16.27;;
65799;SDS011;52544;48.116;11.660;2022-12-18T00:11:06;44.83;;;15.68;;
65799;SDS011;52544;48.116;11.660;2022-12-18T00:13:32;49.22;;;16.60;;
65799;SDS011;52544;48.116;11.660;2022-12-18T00:16:02;50.33;;;15.73;;
65799;SDS011;52544;48.116;11.660;2022-12-18T00:18:28;41.85;;;15.80;;
65799;SDS011;52544;48.116;11.660;2022-12-18T00:20:57;42.15;;;16.33;;
65799;SDS011;52544;48.116;11.660;2022-12-18T00:23:28;47.80;;;14.48;;
65799;SDS011;52544;48.116;11.660;2022-12-18T00:25:54;39.03;;;14.02;;
65799;SDS011;52544;48.116;11.660;2022-12-18T00:28:19;52.97;;;16.02;;
65799;SDS011;52544;48.116;11.660;2022-12-18T00:30:45;43.42;;;15.10;;
65799;SDS011;52544;48.116;11.660;2022-12-18T00:33:10;45.00;;;14.50;;
65799;SDS011;52544;48.116;11.660;2022-12-18T00:35:36;47.25;;;14.80;;
65799;SDS011;52544;48.116;11.660;2022-12-18T00:38:01;41.25;;;14.10;;
65799;SDS011;52544;48.116;11.660;2022-12-18T00:40:26;38.90;;;13.77;;
65799;SDS011;52544;48.116;11.660;2022-12-18T00:42:52;37.90;;;14.75;;
65799;SDS011;52544;48.116;11.660;2022-12-18T00:45:28;36.13;;;12.05;;
65799;SDS011;52544;48.116;11.660;2022-12-18T00:47:55;42.63;;;13.32;;
65799;SDS011;52544;48.116;11.660;2022-12-18T00:50:22;42.10;;;13.60;;
65799;SDS011;52544;48.116;11.660;2022-12-18T00:52:48;44.70;;;13.93;;
65799;SDS011;52544;48.116;11.660;2022-12-18T00:55:14;48.88;;;14.73;;
65799;SDS011;52544;48.116;11.660;2022-12-18T00:57:40;40.45;;;13.80;;
65799;SDS011;52544;48.116;11.660;2022-12-18T01:00:07;39.30;;;12.52;;
65799;SDS011;52544;48.116;11.660;2022-12-18T01:02:34;45.92;;;14.63;;
65799;SDS011;52544;48.116;11.660;2022-12-18T01:04:59;50.08;;;15.02;;
65799;SDS011;52544;48.116;11.660;2022-12-18T01:07:24;41.65;;;15.00;;
65799;SDS011;52544;48.116;11.660;2022-12-18T01:09:50;43.28;;;14.85;;
65799;SDS011;52544;48.116;11.660;2022-12-18T01:12:15;39.95;;;13.70;;
65799;SDS011;52544;48.116;11.660;2022-12-18T01:14:41;42.40;;;13.40;;
65799;SDS011;52544;48.116;11.660;2022-12-18T01:17:06;40.08;;;13.43;;
65799;SDS011;52544;48.116;11.660;2022-12-18T01:19:31;45.38;;;15.27;;
65799;SDS011;52544;48.116;11.660;2022-12-18T01:21:57;45.92;;;14.05;;
65799;SDS011;52544;48.116;11.660;2022-12-18T01:24:23;40.65;;;14.52;;
65799;SDS011;52544;48.116;11.660;2022-12-18T01:26:50;50.88;;;17.45;;
65799;SDS011;52544;48.116;11.660;2022-12-18T01:29:15;55.75;;;16.83;;
65799;SDS011;52544;48.116;11.660;2022-12-18T01:31:41;49.85;;;16.30;;
65799;SDS011;52544;48.116;11.660;2022-12-18T01:34:06;45.58;;;14.52;;
65799;SDS011;52544;48.116;11.660;2022-12-18T01:36:32;50.72;;;14.38;;
65799;SDS011;52544;48.116;11.660;2022-12-18T01:39:03;47.10;;;16.58;;
65799;SDS011;52544;48.116;11.660;2022-12-18T01:41:32;43.55;;;14.00;;
65799;SDS011;52544;48.116;11.660;2022-12-18T01:47:22;47.42;;;14.50;;
65799;SDS011;52544;48.116;11.660;2022-12-18T01:50:07;43.83;;;15.55;;
65799;SDS011;52544;48.116;11.660;2022-12-18T01:52:36;41.88;;;14.80;;
65799;SDS011;52544;48.116;11.660;2022-12-18T01:55:10;45.53;;;14.63;;
65799;SDS011;52544;48.116;11.660;2022-12-18T01:57:37;48.05;;;16.20;;
65799;SDS011;52544;48.116;11.660;2022-12-18T02:00:08;45.70;;;15.43;;
65799;SDS011;52544;48.116;11.660;2022-12-18T02:02:40;50.05;;;15.27;;
65799;SDS011;52544;48.116;11.660;2022-12-18T02:05:06;48.15;;;14.77;;
65799;SDS011;52544;48.116;11.660;2022-12-18T02:07:38;51.70;;;15.88;;
65799;SDS011;52544;48.116;11.660;2022-12-18T02:10:17;52.38;;;16.05;;
65799;SDS011;52544;48.116;11.660;2022-12-18T02:13:02;48.88;;;16.80;;
65799;SDS011;52544;48.116;11.660;2022-12-18T02:15:32;50.58;;;16.75;;
65799;SDS011;52544;48.116;11.660;2022-12-18T02:18:05;46.17;;;15.40;;
65799;SDS011;52544;48.116;11.660;2022-12-18T02:20:41;48.42;;;16.45;;
65799;SDS011;52544;48.116;11.660;2022-12-18T02:23:24;54.92;;;17.20;;
65799;SDS011;52544;48.116;11.660;2022-12-18T02:26:15;49.83;;;16.38;;
65799;SDS011;52544;48.116;11.660;2022-12-18T02:28:53;51.45;;;16.75;;
65799;SDS011;52544;48.116;11.660;2022-12-18T02:31:25;54.20;;;16.83;;
65799;SDS011;52544;48.116;11.660;2022-12-18T02:33:59;45.55;;;16.48;;
65799;SDS011;52544;48.116;11.660;2022-12-18T02:36:27;47.13;;;15.35;;
65799;SDS011;52544;48.116;11.660;2022-12-18T02:38:54;46.10;;;15.45;;
65799;SDS011;52544;48.116;11.660;2022-12-18T02:41:24;49.65;;;17.95;;
65799;SDS011;52544;48.116;11.660;2022-12-18T02:43:55;54.08;;;18.73;;
65799;SDS011;52544;48.116;11.660;2022-12-18T02:46:27;47.78;;;15.93;;
65799;SDS011;52544;48.116;11.660;2022-12-18T02:48:55;56.75;;;17.85;;
65799;SDS011;52544;48.116;11.660;2022-12-18T02:51:29;47.75;;;17.35;;
65799;SDS011;52544;48.116;11.660;2022-12-18T02:54:06;50.45;;;16.83;;
65799;SDS011;52544;48.116;11.660;2022-12-18T02:56:40;49.03;;;16.83;;
65799;SDS011;52544;48.116;11.660;2022-12-18T02:59:18;46.85;;;15.48;;
65799;SDS011;52544;48.116;11.660;2022-12-18T03:01:55;56.40;;;16.48;;
65799;SDS011;52544;48.116;11.660;2022-12-18T03:04:33;40.28;;;14.55;;
65799;SDS011;52544;48.116;11.660;2022-12-18T03:07:17;47.08;;;16.58;;
65799;SDS011;52544;48.116;11.660;2022-12-18T03:09:49;42.15;;;14.77;;
65799;SDS011;52544;48.116;11.660;2022-12-18T03:12:22;46.40;;;15.18;;
65799;SDS011;52544;48.116;11.660;2022-12-18T03:15:04;50.50;;;15.63;;
65799;SDS011;52544;48.116;11.660;2022-12-18T03:17:32;50.80;;;16.08;;
65799;SDS011;52544;48.116;11.660;2022-12-18T03:20:02;47.67;;;14.70;;
65799;SDS011;52544;48.116;11.660;2022-12-18T03:22:34;45.10;;;15.48;;
65799;SDS011;52544;48.116;11.660;2022-12-18T03:25:03;49.95;;;16.45;;
65799;SDS011;52544;48.116;11.660;2022-12-18T03:27:31;52.90;;;17.35;;
65799;SDS011;52544;48.116;11.660;2022-12-18T03:30:04;52.15;;;17.23;;
65799;SDS011;52544;48.116;11.660;2022-12-18T03:32:35;46.28;;;15.85;;
65799;SDS011;52544;48.116;11.660;2022-12-18T03:35:06;48.35;;;16.20;;
65799;SDS011;52544;48.116;11.660;2022-12-18T03:37:35;46.10;;;16.35;;
65799;SDS011;52544;48.116;11.660;2022-12-18T03:40:00;44.45;;;15.05;;
65799;SDS011;52544;48.116;11.660;2022-12-18T03:42:32;47.60;;;15.85;;
65799;SDS011;52544;48.116;11.660;2022-12-18T03:45:06;42.30;;;15.05;;
65799;SDS011;52544;48.116;11.660;2022-12-18T03:47:47;46.78;;;16.35;;
65799;SDS011;52544;48.116;11.660;2022-12-18T03:50:43;37.53;;;13.30;;
65799;SDS011;52544;48.116;11.660;2022-12-18T03:53:32;42.40;;;15.63;;
65799;SDS011;52544;48.116;11.660;2022-12-18T03:55:59;46.13;;;14.85;;
65799;SDS011;52544;48.116;11.660;2022-12-18T03:58:27;44.58;;;14.38;;
65799;SDS011;52544;48.116;11.660;2022-12-18T04:00:55;38.15;;;14.43;;
65799;SDS011;52544;48.116;11.660;2022-12-18T04:03:24;43.30;;;14.82;;
65799;SDS011;52544;48.116;11.660;2022-12-18T04:05:54;46.13;;;14.32;;
65799;SDS011;52544;48.116;11.660;2022-12-18T04:08:20;50.80;;;13.85;;
65799;SDS011;52544;48.116;11.660;2022-12-18T04:10:47;50.25;;;15.27;;
65799;SDS011;52544;48.116;11.660;2022-12-18T04:13:20;46.80;;;15.10;;
65799;SDS011;52544;48.116;11.660;2022-12-18T04:15:47;44.10;;;14.93;;
65799;SDS011;52544;48.116;11.660;2022-12-18T04:18:12;44.40;;;15.48;;
65799;SDS011;52544;48.116;11.660;2022-12-18T04:20:38;43.42;;;15.55;;
65799;SDS011;52544;48.116;11.660;2022-12-18T04:23:03;46.80;;;14.57;;
65799;SDS011;52544;48.116;11.660;2022-12-18T04:25:28;48.15;;;16.42;;
65799;SDS011;52544;48.116;11.660;2022-12-18T04:27:54;41.92;;;14.30;;
65799;SDS011;52544;48.116;11.660;2022-12-18T04:30:19;48.65;;;15.45;;
65799;SDS011;52544;48.116;11.660;2022-12-18T04:32:44;40.45;;;13.73;;
65799;SDS011;52544;48.116;11.660;2022-12-18T04:35:10;43.30;;;14.98;;
65799;SDS011;52544;48.116;11.660;2022-12-18T04:37:37;40.13;;;13.65;;
65799;SDS011;52544;48.116;11.660;2022-12-18T04:40:02;46.63;;;15.80;;
65799;SDS011;52544;48.116;11.660;2022-12-18T04:42:28;44.05;;;14.20;;
65799;SDS011;52544;48.116;11.660;2022-12-18T04:44:54;44.05;;;14.60;;
65799;SDS011;52544;48.116;11.660;2022-12-18T04:47:20;44.08;;;15.45;;
65799;SDS011;52544;48.116;11.660;2022-12-18T04:49:45;42.00;;;14.02;;
65799;SDS011;52544;48.116;11.660;2022-12-18T04:52:10;41.25;;;13.38;;
65799;SDS011;52544;48.116;11.660;2022-12-18T04:54:36;46.10;;;13.88;;
65799;SDS011;52544;48.116;11.660;2022-12-18T04:57:01;33.17;;;12.65;;
65799;SDS011;52544;48.116;11.660;2022-12-18T04:59:27;41.20;;;13.93;;
65799;SDS011;52544;48.116;11.660;2022-12-18T05:01:52;48.42;;;14.50;;
65799;SDS011;52544;48.116;11.660;2022-12-18T05:04:18;40.80;;;12.50;;
65799;SDS011;52544;48.116;11.660;2022-12-18T05:06:43;35.80;;;13.00;;
65799;SDS011;52544;48.116;11.660;2022-12-18T05:09:08;45.35;;;14.85;;
65799;SDS011;52544;48.116;11.660;2022-12-18T05:11:34;46.65;;;14.95;;
65799;SDS011;52544;48.116;11.660;2022-12-18T05:13:59;40.78;;;13.65;;
65799;SDS011;52544;48.116;11.660;2022-12-18T05:16:25;40.55;;;13.95;;
65799;SDS011;52544;48.116;11.660;2022-12-18T05:18:50;38.25;;;12.07;;
65799;SDS011;52544;48.116;11.660;2022-12-18T05:21:15;39.15;;;14.55;;
65799;SDS011;52544;48.116;11.660;2022-12-18T05:23:41;46.40;;;13.48;;
65799;SDS011;52544;48.116;11.660;2022-12-18T05:26:07;40.97;;;14.13;;
65799;SDS011;52544;48.116;11.660;2022-12-18T05:28:40;45.70;;;13.10;;
65799;SDS011;52544;48.116;11.660;2022-12-18T05:31:06;43.35;;;14.48;;
65799;SDS011;52544;48.116;11.660;2022-12-18T05:33:32;38.58;;;13.38;;
65799;SDS011;52544;48.116;11.660;2022-12-18T05:36:00;41.58;;;13.98;;
65799;SDS011;52544;48.116;11.660;2022-12-18T05:38:26;38.83;;;13.32;;
65799;SDS011;52544;48.116;11.660;2022-12-18T05:40:53;35.22;;;12.63;;
65799;SDS011;52544;48.116;11.660;2022-12-18T05:43:19;47.22;;;13.40;;
65799;SDS011;52544;48.116;11.660;2022-12-18T05:45:46;37.78;;;12.02;;
65799;SDS011;52544;48.116;11.660;2022-12-18T05:48:12;36.72;;;13.07;;
65799;SDS011;52544;48.116;11.660;2022-12-18T05:50:38;39.83;;;13.07;;
65799;SDS011;52544;48.116;11.660;2022-12-18T05:53:05;41.42;;;13.75;;
65799;SDS011;52544;48.116;11.660;2022-12-18T05:55:38;39.10;;;12.82;;
65799;SDS011;52544;48.116;11.660;2022-12-18T05:58:05;40.03;;;13.75;;
65799;SDS011;52544;48.116;11.660;2022-12-18T06:00:33;40.72;;;13.52;;
65799;SDS011;52544;48.116;11.660;2022-12-18T06:03:00;36.40;;;13.15;;
65799;SDS011;52544;48.116;11.660;2022-12-18T06:05:27;39.92;;;12.70;;
65799;SDS011;52544;48.116;11.660;2022-12-18T06:07:52;37.15;;;13.07;;
65799;SDS011;52544;48.116;11.660;2022-12-18T06:10:18;40.45;;;13.77;;
65799;SDS011;52544;48.116;11.660;2022-12-18T06:12:43;34.85;;;12.45;;
65799;SDS011;52544;48.116;11.660;2022-12-18T06:15:09;33.15;;;12.05;;
65799;SDS011;52544;48.116;11.660;2022-12-18T06:17:34;39.53;;;12.68;;
65799;SDS011;52544;48.116;11.660;2022-12-18T06:20:00;29.10;;;10.50;;
65799;SDS011;52544;48.116;11.660;2022-12-18T06:22:26;29.13;;;11.07;;
65799;SDS011;52544;48.116;11.660;2022-12-18T06:24:52;39.17;;;12.10;;
65799;SDS011;52544;48.116;11.660;2022-12-18T06:27:18;36.20;;;12.40;;
65799;SDS011;52544;48.116;11.660;2022-12-18T06:29:43;37.42;;;12.82;;
65799;SDS011;52544;48.116;11.660;2022-12-18T06:32:09;33.33;;;12.02;;
65799;SDS011;52544;48.116;11.660;2022-12-18T06:34:36;32.97;;;11.57;;
65799;SDS011;52544;48.116;11.660;2022-12-18T06:37:02;37.35;;;11.80;;
65799;SDS011;52544;48.116;11.660;2022-12-18T06:39:28;40.67;;;13.35;;
65799;SDS011;52544;48.116;11.660;2022-12-18T06:41:53;39.53;;;13.95;;
65799;SDS011;52544;48.116;11.660;2022-12-18T06:44:19;36.58;;;12.70;;
65799;SDS011;52544;48.116;11.660;2022-12-18T06:46:44;38.50;;;12.18;;
65799;SDS011;52544;48.116;11.660;2022-12-18T06:49:09;36.88;;;12.88;;
65799;SDS011;52544;48.116;11.660;2022-12-18T06:51:35;32.33;;;12.63;;
65799;SDS011;52544;48.116;11.660;2022-12-18T06:54:01;37.08;;;11.90;;
65799;SDS011;52544;48.116;11.660;2022-12-18T06:56:27;32.40;;;11.77;;
65799;SDS011;52544;48.116;11.660;2022-12-18T06:58:53;28.05;;;11.25;;
65799;SDS011;52544;48.116;11.660;2022-12-18T07:01:18;35.75;;;12.48;;
65799;SDS011;52544;48.116;11.660;2022-12-18T07:03:44;39.15;;;12.98;;
65799;SDS011;52544;48.116;11.660;2022-12-18T07:06:13;29.80;;;11.90;;
65799;SDS011;52544;48.116;11.660;2022-12-18T07:08:40;34.05;;;11.73;;
65799;SDS011;52544;48.116;11.660;2022-12-18T07:11:06;34.65;;;12.20;;
65799;SDS011;52544;48.116;11.660;2022-12-18T07:13:32;33.28;;;10.90;;
65799;SDS011;52544;48.116;11.660;2022-12-18T07:16:10;32.88;;;11.52;;
65799;SDS011;52544;48.116;11.660;2022-12-18T07:18:37;32.97;;;12.15;;
65799;SDS011;52544;48.116;11.660;2022-12-18T07:21:03;36.78;;;11.68;;
65799;SDS011;52544;48.116;11.660;2022-12-18T07:23:31;32.40;;;12.13;;
65799;SDS011;52544;48.116;11.660;2022-12-18T07:26:05;34.83;;;12.07;;
65799;SDS011;52544;48.116;11.660;2022-12-18T07:28:33;31.98;;;11.52;;
65799;SDS011;52544;48.116;11.660;2022-12-18T07:31:09;32.10;;;10.85;;
65799;SDS011;52544;48.116;11.660;2022-12-18T07:33:37;28.92;;;10.38;;
65799;SDS011;52544;48.116;11.660;2022-12-18T07:36:03;33.03;;;11.55;;
65799;SDS011;52544;48.116;11.660;2022-12-18T07:38:31;33.65;;;12.48;;
65799;SDS011;52544;48.116;11.660;2022-12-18T07:41:01;29.42;;;11.18;;
65799;SDS011;52544;48.116;11.660;2022-12-18T07:43:31;31.02;;;10.13;;
65799;SDS011;52544;48.116;11.660;2022-12-18T07:45:56;29.67;;;10.80;;
65799;SDS011;52544;48.116;11.660;2022-12-18T07:48:22;32.47;;;11.00;;
65799;SDS011;52544;48.116;11.660;2022-12-18T07:50:47;25.75;;;10.00;;
65799;SDS011;52544;48.116;11.660;2022-12-18T07:53:13;34.60;;;11.52;;
65799;SDS011;52544;48.116;11.660;2022-12-18T07:55:39;41.05;;;13.35;;
65799;SDS011;52544;48.116;11.660;2022-12-18T07:58:06;29.35;;;10.80;;
65799;SDS011;52544;48.116;11.660;2022-12-18T08:00:32;28.00;;;9.75;;
65799;SDS011;52544;48.116;11.660;2022-12-18T08:02:58;34.10;;;11.73;;
65799;SDS011;52544;48.116;11.660;2022-12-18T08:05:24;38.63;;;11.23;;
65799;SDS011;52544;48.116;11.660;2022-12-18T08:07:50;26.08;;;10.15;;
65799;SDS011;52544;48.116;11.660;2022-12-18T08:10:15;29.98;;;11.52;;
65799;SDS011;52544;48.116;11.660;2022-12-18T08:12:41;25.63;;;10.02;;
65799;SDS011;52544;48.116;11.660;2022-12-18T08:15:07;30.65;;;11.27;;
65799;SDS011;52544;48.116;11.660;2022-12-18T08:17:32;31.75;;;12.13;;
65799;SDS011;52544;48.116;11.660;2022-12-18T08:19:58;32.47;;;11.00;;
65799;SDS011;52544;48.116;11.660;2022-12-18T08:22:23;48.95;;;18.23;;
65799;SDS011;52544;48.116;11.660;2022-12-18T08:24:49;32.42;;;11.27;;
65799;SDS011;52544;48.116;11.660;2022-12-18T08:27:15;34.67;;;10.90;;
65799;SDS011;52544;48.116;11.660;2022-12-18T08:29:41;36.33;;;11.70;;
65799;SDS011;52544;48.116;11.660;2022-12-18T08:32:06;31.05;;;11.95;;
65799;SDS011;52544;48.116;11.660;2022-12-18T08:34:32;28.33;;;10.20;;
65799;SDS011;52544;48.116;11.660;2022-12-18T08:36:57;33.92;;;11.63;;
65799;SDS011;52544;48.116;11.660;2022-12-18T08:39:22;35.35;;;12.30;;
65799;SDS011;52544;48.116;11.660;2022-12-18T08:41:48;29.90;;;11.52;;
65799;SDS011;52544;48.116;11.660;2022-12-18T08:44:34;30.38;;;11.70;;
65799;SDS011;52544;48.116;11.660;2022-12-18T08:47:02;31.17;;;10.20;;
65799;SDS011;52544;48.116;11.660;2022-12-18T08:49:28;22.65;;;10.48;;
65799;SDS011;52544;48.116;11.660;2022-12-18T08:51:54;40.13;;;14.95;;
65799;SDS011;52544;48.116;11.660;2022-12-18T08:54:25;34.42;;;12.52;;
65799;SDS011;52544;48.116;11.660;2022-12-18T08:56:51;32.95;;;11.48;;
65799;SDS011;52544;48.116;11.660;2022-12-18T08:59:19;30.70;;;10.25;;
65799;SDS011;52544;48.116;11.660;2022-12-18T09:01:44;28.90;;;10.05;;
65799;SDS011;52544;48.116;11.660;2022-12-18T09:04:11;34.08;;;12.45;;
65799;SDS011;52544;48.116;11.660;2022-12-18T09:06:37;29.88;;;10.23;;
65799;SDS011;52544;48.116;11.660;2022-12-18T09:09:04;36.88;;;14.38;;
65799;SDS011;52544;48.116;11.660;2022-12-18T09:11:30;44.65;;;14.10;;
65799;SDS011;52544;48.116;11.660;2022-12-18T09:13:57;33.03;;;9.52;;
65799;SDS011;52544;48.116;11.660;2022-12-18T09:16:25;29.95;;;10.82;;
65799;SDS011;52544;48.116;11.660;2022-12-18T09:18:56;25.35;;;11.10;;
65799;SDS011;52544;48.116;11.660;2022-12-18T09:21:28;27.83;;;10.88;;
65799;SDS011;52544;48.116;11.660;2022-12-18T09:23:55;28.92;;;11.70;;
65799;SDS011;52544;48.116;11.660;2022-12-18T09:26:22;33.10;;;10.52;;
65799;SDS011;52544;48.116;11.660;2022-12-18T09:28:49;33.17;;;11.88;;
65799;SDS011;52544;48.116;11.660;2022-12-18T09:31:15;34.58;;;12.40;;
65799;SDS011;52544;48.116;11.660;2022-12-18T09:33:42;36.92;;;12.18;;
65799;SDS011;52544;48.116;11.660;2022-12-18T09:36:09;33.22;;;11.35;;
65799;SDS011;52544;48.116;11.660;2022-12-18T09:38:36;28.83;;;10.15;;
65799;SDS011;52544;48.116;11.660;2022-12-18T09:41:45;29.23;;;10.63;;
65799;SDS011;52544;48.116;11.660;2022-12-18T09:44:17;33.42;;;10.77;;
65799;SDS011;52544;48.116;11.660;2022-12-18T09:46:58;29.20;;;10.95;;
65799;SDS011;52544;48.116;11.660;2022-12-18T09:49:32;29.80;;;10.38;;
65799;SDS011;52544;48.116;11.660;2022-12-18T09:52:09;28.13;;;10.32;;
65799;SDS011;52544;48.116;11.660;2022-12-18T09:54:39;29.75;;;10.65;;
65799;SDS011;52544;48.116;11.660;2022-12-18T09:57:10;31.02;;;10.75;;
65799;SDS011;52544;48.116;11.660;2022-12-18T09:59:47;29.13;;;11.00;;
65799;SDS011;52544;48.116;11.660;2022-12-18T10:02:29;28.40;;;11.40;;
65799;SDS011;52544;48.116;11.660;2022-12-18T10:10:29;33.45;;;14.27;;
65799;SDS011;52544;48.116;11.660;2022-12-18T10:13:07;28.90;;;10.07;;
65799;SDS011;52544;48.116;11.660;2022-12-18T10:15:48;32.28;;;12.32;;
65799;SDS011;52544;48.116;11.660;2022-12-18T10:18:22;28.65;;;10.23;;
65799;SDS011;52544;48.116;11.660;2022-12-18T10:20:54;26.67;;;9.13;;
65799;SDS011;52544;48.116;11.660;2022-12-18T10:23:26;29.13;;;9.23;;
65799;SDS011;52544;48.116;11.660;2022-12-18T10:26:14;27.80;;;9.88;;
65799;SDS011;52544;48.116;11.660;2022-12-18T10:28:42;31.98;;;10.65;;
65799;SDS011;52544;48.116;11.660;2022-12-18T10:31:19;36.92;;;14.35;;
65799;SDS011;52544;48.116;11.660;2022-12-18T10:33:46;31.35;;;11.48;;
65799;SDS011;52544;48.116;11.660;2022-12-18T10:36:12;26.63;;;9.20;;
65799;SDS011;52544;48.116;11.660;2022-12-18T10:38:38;30.65;;;10.40;;
65799;SDS011;52544;48.116;11.660;2022-12-18T10:46:02;28.92;;;11.73;;
65799;SDS011;52544;48.116;11.660;2022-12-18T10:48:31;28.33;;;9.63;;
65799;SDS011;52544;48.116;11.660;2022-12-18T10:50:58;29.65;;;10.93;;
65799;SDS011;52544;48.116;11.660;2022-12-18T10:53:25;26.33;;;8.90;;
65799;SDS011;52544;48.116;11.660;2022-12-18T10:55:55;29.40;;;10.02;;
65799;SDS011;52544;48.116;11.660;2022-12-18T10:58:30;25.35;;;9.07;;
65799;SDS011;52544;48.116;11.660;2022-12-18T11:06:18;29.70;;;9.25;;
65799;SDS011;52544;48.116;11.660;2022-12-18T11:11:25;23.63;;;9.40;;
65799;SDS011;52544;48.116;11.660;2022-12-18T11:14:04;28.23;;;10.05;;
65799;SDS011;52544;48.116;11.660;2022-12-18T11:16:36;28.48;;;10.07;;
65799;SDS011;52544;48.116;11.660;2022-12-18T11:19:10;22.92;;;9.13;;
65799;SDS011;52544;48.116;11.660;2022-12-18T11:21:49;23.27;;;9.07;;
65799;SDS011;52544;48.116;11.660;2022-12-18T11:24:18;29.52;;;10.98;;
65799;SDS011;52544;48.116;11.660;2022-12-18T11:26:56;27.75;;;11.10;;
65799;SDS011;52544;48.116;11.660;2022-12-18T11:29:32;33.70;;;12.43;;
65799;SDS011;52544;48.116;11.660;2022-12-18T11:32:20;31.58;;;11.20;;
65799;SDS011;52544;48.116;11.660;2022-12-18T11:34:52;25.83;;;9.90;;
65799;SDS011;52544;48.116;11.660;2022-12-18T11:37:24;30.25;;;10.23;;
65799;SDS011;52544;48.116;11.660;2022-12-18T11:39:56;31.38;;;11.07;;
65799;SDS011;52544;48.116;11.660;2022-12-18T11:42:39;31.83;;;10.68;;
65799;SDS011;52544;48.116;11.660;2022-12-18T11:47:49;28.27;;;10.43;;
65799;SDS011;52544;48.116;11.660;2022-12-18T11:50:17;31.17;;;10.73;;
65799;SDS011;52544;48.116;11.660;2022-12-18T11:52:47;27.88;;;10.38;;
65799;SDS011;52544;48.116;11.660;2022-12-18T11:55:24;25.92;;;10.23;;
65799;SDS011;52544;48.116;11.660;2022-12-18T11:58:08;26.23;;;9.52;;
65799;SDS011;52544;48.116;11.660;2022-12-18T12:01:06;29.42;;;10.90;;
65799;SDS011;52544;48.116;11.660;2022-12-18T12:06:19;28.02;;;9.60;;
65799;SDS011;52544;48.116;11.660;2022-12-18T12:17:30;25.77;;;10.32;;
65799;SDS011;52544;48.116;11.660;2022-12-18T12:39:16;23.60;;;9.55;;
65799;SDS011;52544;48.116;11.660;2022-12-18T12:41:46;34.80;;;12.23;;
65799;SDS011;52544;48.116;11.660;2022-12-18T12:44:33;33.63;;;11.70;;
65799;SDS011;52544;48.116;11.660;2022-12-18T12:47:15;29.60;;;11.63;;
65799;SDS011;52544;48.116;11.660;2022-12-18T12:49:44;27.73;;;9.95;;
65799;SDS011;52544;48.116;11.660;2022-12-18T12:52:17;29.23;;;10.75;;
65799;SDS011;52544;48.116;11.660;2022-12-18T12:54:58;39.25;;;16.15;;
65799;SDS011;52544;48.116;11.660;2022-12-18T12:57:34;37.90;;;14.55;;
65799;SDS011;52544;48.116;11.660;2022-12-18T13:00:17;25.48;;;10.45;;
65799;SDS011;52544;48.116;11.660;2022-12-18T13:05:34;41.22;;;15.70;;
65799;SDS011;52544;48.116;11.660;2022-12-18T13:08:09;31.95;;;10.90;;
65799;SDS011;52544;48.116;11.660;2022-12-18T13:13:10;31.65;;;10.65;;
65799;SDS011;52544;48.116;11.660;2022-12-18T13:16:03;24.23;;;9.20;;
65799;SDS011;52544;48.116;11.660;2022-12-18T13:18:30;27.13;;;10.55;;
65799;SDS011;52544;48.116;11.660;2022-12-18T13:25:47;23.80;;;10.07;;
65799;SDS011;52544;48.116;11.660;2022-12-18T13:31:08;31.77;;;10.35;;
65799;SDS011;52544;48.116;11.660;2022-12-18T13:36:13;32.58;;;10.98;;
65799;SDS011;52544;48.116;11.660;2022-12-18T13:38:39;30.02;;;10.98;;
65799;SDS011;52544;48.116;11.660;2022-12-18T13:43:41;28.85;;;10.75;;
65799;SDS011;52544;48.116;11.660;2022-12-18T13:48:54;28.58;;;11.10;;
65799;SDS011;52544;48.116;11.660;2022-12-18T13:51:21;32.17;;;10.18;;
65799;SDS011;52544;48.116;11.660;2022-12-18T13:53:50;27.70;;;10.48;;
65799;SDS011;52544;48.116;11.660;2022-12-18T13:56:25;27.63;;;10.48;;
65799;SDS011;52544;48.116;11.660;2022-12-18T13:59:18;26.02;;;9.60;;
65799;SDS011;52544;48.116;11.660;2022-12-18T14:04:20;28.63;;;11.20;;
65799;SDS011;52544;48.116;11.660;2022-12-18T14:06:49;30.70;;;10.82;;
65799;SDS011;52544;48.116;11.660;2022-12-18T14:09:19;28.15;;;9.45;;
65799;SDS011;52544;48.116;11.660;2022-12-18T14:11:50;27.63;;;10.23;;
65799;SDS011;52544;48.116;11.660;2022-12-18T14:14:16;27.35;;;10.93;;
65799;SDS011;52544;48.116;11.660;2022-12-18T14:16:43;32.42;;;10.52;;
65799;SDS011;52544;48.116;11.660;2022-12-18T14:19:12;28.52;;;10.45;;
65799;SDS011;52544;48.116;11.660;2022-12-18T14:21:45;26.15;;;10.13;;
65799;SDS011;52544;48.116;11.660;2022-12-18T14:24:16;27.50;;;9.80;;
65799;SDS011;52544;48.116;11.660;2022-12-18T14:26:44;38.53;;;11.05;;
65799;SDS011;52544;48.116;11.660;2022-12-18T14:32:11;30.02;;;10.15;;
65799;SDS011;52544;48.116;11.660;2022-12-18T14:34:51;32.83;;;11.68;;
65799;SDS011;52544;48.116;11.660;2022-12-18T14:37:23;61.20;;;20.33;;
65799;SDS011;52544;48.116;11.660;2022-12-18T14:39:53;70.38;;;26.30;;
65799;SDS011;52544;48.116;11.660;2022-12-18T14:42:19;30.40;;;10.75;;
65799;SDS011;52544;48.116;11.660;2022-12-18T14:44:44;30.02;;;11.98;;
65799;SDS011;52544;48.116;11.660;2022-12-18T14:47:13;38.88;;;14.18;;
65799;SDS011;52544;48.116;11.660;2022-12-18T14:49:40;35.40;;;11.98;;
65799;SDS011;52544;48.116;11.660;2022-12-18T14:52:28;36.92;;;12.43;;
65799;SDS011;52544;48.116;11.660;2022-12-18T14:54:56;30.63;;;12.05;;
65799;SDS011;52544;48.116;11.660;2022-12-18T14:59:48;29.98;;;12.13;;
65799;SDS011;52544;48.116;11.660;2022-12-18T15:02:22;36.10;;;13.15;;
65799;SDS011;52544;48.116;11.660;2022-12-18T15:07:39;29.60;;;10.63;;
65799;SDS011;52544;48.116;11.660;2022-12-18T15:12:42;25.75;;;10.35;;
65799;SDS011;52544;48.116;11.660;2022-12-18T15:17:59;39.67;;;13.98;;
65799;SDS011;52544;48.116;11.660;2022-12-18T15:20:25;31.67;;;12.60;;
65799;SDS011;52544;48.116;11.660;2022-12-18T15:22:51;31.65;;;11.20;;
65799;SDS011;52544;48.116;11.660;2022-12-18T15:27:57;29.13;;;10.00;;
65799;SDS011;52544;48.116;11.660;2022-12-18T15:30:23;40.80;;;15.98;;
65799;SDS011;52544;48.116;11.660;2022-12-18T15:32:50;26.45;;;11.23;;
65799;SDS011;52544;48.116;11.660;2022-12-18T15:35:21;27.70;;;11.70;;
65799;SDS011;52544;48.116;11.660;2022-12-18T15:37:48;27.95;;;11.32;;
65799;SDS011;52544;48.116;11.660;2022-12-18T15:40:16;31.67;;;13.82;;
65799;SDS011;52544;48.116;11.660;2022-12-18T15:42:43;38.35;;;12.23;;
65799;SDS011;52544;48.116;11.660;2022-12-18T15:45:38;35.35;;;13.05;;
65799;SDS011;52544;48.116;11.660;2022-12-18T15:48:14;32.90;;;12.80;;
65799;SDS011;52544;48.116;11.660;2022-12-18T15:50:45;34.75;;;14.13;;
65799;SDS011;52544;48.116;11.660;2022-12-18T15:53:11;36.20;;;12.93;;
65799;SDS011;52544;48.116;11.660;2022-12-18T15:55:36;45.25;;;16.02;;
65799;SDS011;52544;48.116;11.660;2022-12-18T15:58:21;32.30;;;12.15;;